Arthurdale, West Virginia
Current Conditions -  °F | °C
As of 5:53 AM on Thursday 23 Oct 2014 (Local Time) from KMGW Reporting Station
Overcast Overcast  
Wind Chill: 44°   Ceiling: 1400
Heat Index: 47°   Visibility: 10mi
Dew Point: 40°   Wind: 6mph
Humidity: 77%   Direction: 320°NW
Pressure: 30.14"   Gusts: NA
Location:  39.49°N, 79.82°W
Report Text: KMGW 230953Z AUTO 32005KT 10SM OVC014 08/04 A3014 RMK AO2 SLP208 T00830044 TSNO
Loading
Personal Weather Stations






























Interactive Weather Map
Tropical Storm Tracking
New forecast layout! Learn more

10-Day Weather Forecast

Advertisements
Track Severe Weather on mobile